DIAPDIYO

Guest
Details From DIAP - Abidjan Felix Houphouet Boigny Intl
To DIYO - YAMOUSSOUKRO
Flight Number -
Tags generated
Created
Modified
Stats Distance 139 nm / 258 km
Max Altitude 12,400 ft / 3,780 m
Waypoints 4
Social Downloads 0
Likes 0
Share VATSIM

Download

Looking for another format? Having issues loading an existing format? Contact us
Advertisement - Login to hide

Notes

Basic altitude profile: - Ascent Rate: 2500ft/min - Ascent Speed: 250kts - Cruise Altitude: 35000ft - Cruise Speed: 420kts - Descent Rate: 1500ft/min - Descent Speed: 250kts Options: - Use NATs: yes - Use PACOTS: yes - Use low airways: yes - Use high airways: yes

Route

DIAP AD G851F DEGAS DIYO

ID Type Via Altitude Latitude Longitude Leg Dist Tot Dist Heading (true) Name
O DIAP APT - 0 ft / 0 m 5.26139˚ -3.92630˚ - 0 nm - Abidjan Felix Houphouet Boigny Intl
AD VOR - 300 ft / 91 m 5.27719˚ -3.91931˚ 1 nm 1 nm 24° / 24° ABIDJAN VOR-DME
DEGAS FIX G851F (AWY-LO) 12,400 ft / 3,780 m 6.49111˚ -4.48556˚ 80 nm 81 nm 335° / 335° -
O DIYO APT - 0 ft / 0 m 6.90317˚ -5.36558˚ 58 nm 139 nm 295° / 295° YAMOUSSOUKRO

Altitude Profile

Advertisement - Login to hide

DIAP

Details ICAO DIAP (ABJ)
Name Abidjan Felix Houphouet Boigny Intl
Region Côte d'Ivoire
Timezone Africa/Abidjan (UTC+0.0)
Stats Elevation 21 ft / 6 m (AMSL)
Location 5.261386° -3.926296°
Runways 1
Magnetic Variation 4.636° W

METAR

DIAP 220430Z 26004KT 9999 FEW012 27/25 Q1010 NOSIG

Decode

TAF

TAF DIAP 212300Z 2200/2306 20005KT 9999 SCT012 PROB30 TEMPO 2208/2212 BKN012 FEW020CB TEMPO 2215/2220 TS BKN012 FEW020CB

Decode

Departure Runways

ID Width Length Bearing (true) Bearing (mag) Surface Threshold Offset Overrun Length
03 164 ft / 50 m 9,889 ft / 3,014 m 22.27° 26.91° Asphalt 0 ft / 0 m 197 ft / 60 m
21 164 ft / 50 m 9,889 ft / 3,014 m 202.27° 206.91° Asphalt 0 ft / 0 m 328 ft / 100 m

DIYO

Details ICAO DIYO (ASK)
Name YAMOUSSOUKRO
Region Côte d'Ivoire
Timezone Africa/Abidjan (UTC+0.0)
Stats Elevation 699 ft / 213 m (AMSL)
Location 6.903166° -5.365579°
Runways 1
Magnetic Variation 4.637° W

METAR

Not found

TAF

TAF DIYO 212300Z 2200/2224 22004KT 9999 SCT013 TEMPO 2216/2220 TS BKN013 FEW025CB

Decode

Destination Runways

ID Width Length Bearing (true) Bearing (mag) Surface Threshold Offset Overrun Length
05 148 ft / 45 m 9,946 ft / 3,032 m 41.92° 46.56° Asphalt 0 ft / 0 m 330 ft / 101 m
23 148 ft / 45 m 9,946 ft / 3,032 m 221.92° 226.56° Asphalt 0 ft / 0 m 330 ft / 101 m

Popular Alternatives